Time;durP1;ratioP1;P1;durP2;ratioP2;P2;SDS_P1;SDS_P2;PMS_P1;PMS_P2;Temp;Humidity;BMP_temperature;BMP_pressure;BME280_temperature;BME280_humidity;BME280_pressure;Samples;Min_cycle;Max_cycle;Signal;HPM_P1;HPM_P2
2022/12/09 00:00:25;;;;;;;37.80;26.45;;;6.00;87.10;;;;;;5037738;28;20033;-73
2022/12/09 00:02:51;;;;;;;37.10;26.75;;;5.90;86.90;;;;;;5036052;28;20683;-73
2022/12/09 00:05:18;;;;;;;40.25;28.55;;;5.90;86.70;;;;;;5019676;28;20107;-73
2022/12/09 00:07:43;;;;;;;42.03;28.60;;;5.90;86.80;;;;;;5045602;28;20024;-74
2022/12/09 00:10:09;;;;;;;44.65;30.02;;;5.90;87.00;;;;;;5042290;28;20025;-74
2022/12/09 00:12:34;;;;;;;38.28;26.58;;;6.00;87.30;;;;;;5033878;28;20069;-74
2022/12/09 00:15:00;;;;;;;43.25;28.73;;;6.00;87.40;;;;;;5038900;28;20025;-72
2022/12/09 00:17:26;;;;;;;41.92;28.17;;;6.10;87.40;;;;;;5040102;28;20035;-74
2022/12/09 00:19:51;;;;;;;45.85;30.70;;;6.10;87.30;;;;;;5044082;28;20160;-74
2022/12/09 00:22:17;;;;;;;49.50;33.03;;;6.20;87.30;;;;;;5028749;28;20033;-73
2022/12/09 00:24:43;;;;;;;43.38;30.95;;;6.10;87.50;;;;;;5042346;28;20025;-74
2022/12/09 00:27:08;;;;;;;48.47;31.23;;;6.20;87.90;;;;;;5041253;28;20035;-73
2022/12/09 00:29:34;;;;;;;48.00;31.92;;;6.20;88.30;;;;;;5031583;28;20040;-73
2022/12/09 00:31:59;;;;;;;48.65;33.28;;;6.20;88.30;;;;;;5037504;28;20134;-74
2022/12/09 00:34:25;;;;;;;48.30;31.48;;;6.20;88.80;;;;;;5048614;28;20059;-73
2022/12/09 00:36:51;;;;;;;47.97;30.80;;;6.20;88.10;;;;;;5043388;28;20013;-75
2022/12/09 00:39:16;;;;;;;43.63;29.90;;;6.20;88.20;;;;;;5048959;28;20151;-74
2022/12/09 00:41:42;;;;;;;49.90;31.90;;;6.20;88.30;;;;;;5039453;28;20036;-74
2022/12/09 00:44:09;;;;;;;50.35;32.70;;;6.30;88.70;;;;;;5036962;28;20034;-75
2022/12/09 00:46:35;;;;;;;45.22;30.90;;;6.20;89.60;;;;;;5047012;28;20020;-75
2022/12/09 00:49:04;;;;;;;46.33;31.40;;;6.20;88.70;;;;;;5048453;28;20392;-74
2022/12/09 00:51:29;;;;;;;49.28;31.25;;;6.30;88.60;;;;;;5049377;28;20032;-74
2022/12/09 00:53:55;;;;;;;52.35;32.47;;;6.30;88.60;;;;;;5047690;28;20106;-73
2022/12/09 00:56:27;;;;;;;49.28;32.10;;;6.30;88.70;;;;;;5045949;28;20021;-73
2022/12/09 00:58:53;;;;;;;48.22;33.17;;;6.30;88.90;;;;;;5045836;28;20474;-73
2022/12/09 01:01:18;;;;;;;49.97;31.83;;;6.30;88.90;;;;;;5047094;28;20024;-72
2022/12/09 01:03:44;;;;;;;47.05;31.40;;;6.30;89.00;;;;;;5039694;28;20029;-74
2022/12/09 01:06:14;;;;;;;50.42;32.85;;;6.30;89.00;;;;;;5020622;28;20087;-73
2022/12/09 01:08:40;;;;;;;;;;;6.30;89.10;;;;;;5037918;28;20017;-73
2022/12/09 01:11:11;;;;;;;52.63;31.85;;;6.30;89.30;;;;;;5039235;28;19917;-73
2022/12/09 01:13:37;;;;;;;47.08;29.30;;;6.40;89.30;;;;;;5039995;28;20108;-73
2022/12/09 01:16:11;;;;;;;43.75;29.27;;;6.30;89.00;;;;;;5040571;28;20477;-73
2022/12/09 01:18:37;;;;;;;51.15;32.53;;;6.30;88.50;;;;;;5032861;28;20072;-72
2022/12/09 01:21:03;;;;;;;51.67;32.47;;;6.30;88.60;;;;;;5041123;28;20086;-73
2022/12/09 01:23:29;;;;;;;47.75;31.27;;;6.30;88.80;;;;;;5039708;28;20021;-73
2022/12/09 01:25:54;;;;;;;42.97;29.63;;;6.30;88.50;;;;;;5047591;28;20013;-73
2022/12/09 01:28:20;;;;;;;46.22;30.65;;;6.30;88.00;;;;;;5039340;28;20025;-73
2022/12/09 01:30:46;;;;;;;47.35;30.55;;;6.20;87.60;;;;;;5041013;28;20099;-74
2022/12/09 01:33:11;;;;;;;52.90;33.85;;;6.10;87.70;;;;;;5044074;28;20044;-74
2022/12/09 01:35:40;;;;;;;50.28;32.22;;;6.10;88.00;;;;;;5042187;28;20057;-74
2022/12/09 01:38:06;;;;;;;53.33;34.15;;;6.00;88.30;;;;;;5038934;28;20021;-73
2022/12/09 01:40:32;;;;;;;53.13;36.95;;;6.00;88.50;;;;;;5045562;28;20017;-74
2022/12/09 01:42:57;;;;;;;53.42;35.90;;;5.90;88.60;;;;;;5047732;28;20036;-73
2022/12/09 01:45:29;;;;;;;57.15;36.33;;;5.90;89.10;;;;;;5036484;28;20035;-74
2022/12/09 01:48:15;;;;;;;59.45;39.95;;;5.90;89.80;;;;;;5044149;28;20040;-73
2022/12/09 01:50:45;;;;;;;54.30;36.85;;;5.90;90.00;;;;;;5045087;28;20108;-73
2022/12/09 01:53:12;;;;;;;53.72;35.90;;;5.90;89.80;;;;;;5044265;28;20132;-73
2022/12/09 01:55:38;;;;;;;55.40;36.13;;;6.00;90.00;;;;;;5049301;28;20025;-73
2022/12/09 01:58:04;;;;;;;56.17;37.20;;;6.00;89.90;;;;;;5045462;28;20021;-73
2022/12/09 02:00:30;;;;;;;56.40;37.50;;;6.00;89.80;;;;;;5042241;28;20033;-73
2022/12/09 02:02:59;;;;;;;52.47;34.45;;;6.00;89.90;;;;;;5043080;28;20036;-73
2022/12/09 02:05:27;;;;;;;55.70;37.33;;;6.00;90.00;;;;;;5045335;28;20021;-73
2022/12/09 02:07:52;;;;;;;54.55;35.67;;;6.00;89.90;;;;;;5045748;28;20082;-74
2022/12/09 02:10:18;;;;;;;51.03;34.33;;;6.00;89.90;;;;;;5048091;28;20032;-74
2022/12/09 02:12:59;;;;;;;53.95;35.47;;;6.10;89.70;;;;;;5048248;28;20041;-73
2022/12/09 02:15:47;;;;;;;54.67;36.22;;;6.00;89.40;;;;;;5039837;28;20029;-74
2022/12/09 02:18:28;;;;;;;49.63;33.47;;;6.00;89.40;;;;;;5027630;28;20087;-74
2022/12/09 02:21:00;;;;;;;53.33;35.38;;;5.90;89.50;;;;;;5032834;28;20024;-74
2022/12/09 02:23:44;;;;;;;58.55;36.55;;;5.90;89.60;;;;;;5048092;28;20025;-74
2022/12/09 02:26:34;;;;;;;56.20;38.67;;;5.90;89.90;;;;;;5027933;28;20025;-74
2022/12/09 02:29:27;;;;;;;51.13;33.67;;;5.90;90.00;;;;;;5046036;28;20021;-74
2022/12/09 02:32:12;;;;;;;49.63;32.95;;;5.80;89.60;;;;;;5030338;28;20480;-73
2022/12/09 02:34:49;;;;;;;54.05;35.03;;;5.70;89.50;;;;;;5042985;28;20095;-73
2022/12/09 02:37:18;;;;;;;44.85;30.30;;;5.70;89.40;;;;;;5024575;28;20022;-73
2022/12/09 02:39:56;;;;;;;52.75;34.17;;;5.70;89.40;;;;;;5034926;28;20107;-73
2022/12/09 02:42:24;;;;;;;51.65;34.17;;;5.70;89.50;;;;;;5035235;28;20025;-74
2022/12/09 02:44:52;;;;;;;53.40;33.63;;;5.70;89.50;;;;;;5041649;28;20100;-75
2022/12/09 02:47:22;;;;;;;56.83;35.47;;;5.70;89.60;;;;;;5039091;28;20135;-75
2022/12/09 02:49:51;;;;;;;51.25;33.65;;;5.70;89.20;;;;;;5029357;28;20111;-75
2022/12/09 02:52:18;;;;;;;54.55;35.40;;;5.70;89.60;;;;;;5045066;28;20108;-73
2022/12/09 02:54:44;;;;;;;52.08;32.47;;;5.70;89.10;;;;;;5046065;28;20386;-74
2022/12/09 02:57:23;;;;;;;49.35;32.38;;;5.60;89.10;;;;;;5037799;28;20036;-73
2022/12/09 02:59:48;;;;;;;52.83;32.92;;;5.50;89.70;;;;;;5040047;28;20017;-74
2022/12/09 03:02:47;;;;;;;53.70;33.92;;;5.50;89.20;;;;;;5036408;28;20844;-74
2022/12/09 03:05:19;;;;;;;49.65;31.77;;;5.50;89.40;;;;;;5030429;28;20029;-74
2022/12/09 03:07:57;;;;;;;55.83;34.25;;;5.50;89.30;;;;;;5041977;28;20037;-73
2022/12/09 03:10:38;;;;;;;51.42;31.20;;;5.50;89.40;;;;;;5046833;28;20021;-74
2022/12/09 03:13:30;;;;;;;51.40;30.67;;;5.50;89.70;;;;;;5041096;28;20088;-74
2022/12/09 03:16:17;;;;;;;53.58;32.85;;;5.50;89.70;;;;;;5037349;28;20048;-73
2022/12/09 03:18:48;;;;;;;49.15;29.75;;;5.50;90.00;;;;;;5041575;28;20067;-74
2022/12/09 03:21:17;;;;;;;50.40;31.83;;;5.50;89.80;;;;;;5031718;28;20017;-74
2022/12/09 03:23:45;;;;;;;48.70;31.73;;;5.60;90.00;;;;;;5028735;28;20029;-73
2022/12/09 03:26:13;;;;;;;50.33;29.02;;;5.50;89.70;;;;;;5040485;28;20025;-75
2022/12/09 03:28:43;;;;;;;38.75;25.38;;;5.50;89.70;;;;;;5040632;28;20093;-73
2022/12/09 03:31:13;;;;;;;43.58;26.95;;;5.50;89.40;;;;;;5037377;28;20165;-73
2022/12/09 03:33:46;;;;;;;45.42;30.02;;;5.50;89.20;;;;;;5043217;28;20048;-75
2022/12/09 03:36:14;;;;;;;39.03;25.90;;;5.50;89.40;;;;;;5043850;28;20060;-75
2022/12/09 03:38:42;;;;;;;45.13;29.35;;;5.40;89.10;;;;;;5036509;28;20032;-74
2022/12/09 03:41:23;;;;;;;44.30;27.90;;;5.40;89.20;;;;;;5039224;28;20437;-74
2022/12/09 03:44:10;;;;;;;46.30;27.02;;;5.40;89.40;;;;;;5029533;28;20034;-72
2022/12/09 03:46:36;;;;;;;41.92;24.98;;;5.40;89.00;;;;;;5029598;28;20391;-73
2022/12/09 03:49:02;;;;;;;41.38;26.15;;;5.40;88.70;;;;;;5029704;28;20044;-73
2022/12/09 03:51:36;;;;;;;43.70;27.17;;;5.40;88.90;;;;;;5042756;28;20021;-73
2022/12/09 03:54:14;;;;;;;38.40;23.95;;;5.40;89.00;;;;;;5045461;28;20025;-73
2022/12/09 03:56:43;;;;;;;36.72;23.55;;;5.40;88.90;;;;;;5017004;28;20391;-74
2022/12/09 03:59:11;;;;;;;38.72;25.98;;;5.40;88.60;;;;;;5040615;28;20106;-74
2022/12/09 04:01:39;;;;;;;44.58;27.98;;;5.40;88.40;;;;;;5033517;28;20029;-74
2022/12/09 04:04:04;;;;;;;41.97;27.33;;;5.40;88.30;;;;;;5032301;28;20083;-73
2022/12/09 04:06:30;;;;;;;44.72;27.75;;;5.40;88.30;;;;;;5046479;28;20032;-74
2022/12/09 04:08:56;;;;;;;44.97;26.90;;;5.40;88.10;;;;;;5048292;28;20028;-73
2022/12/09 04:11:21;;;;;;;45.17;27.73;;;5.40;87.90;;;;;;5041420;28;20144;-74
2022/12/09 04:13:47;;;;;;;43.88;25.55;;;5.40;87.80;;;;;;5043294;28;20090;-74
2022/12/09 04:16:13;;;;;;;40.97;24.40;;;5.40;87.90;;;;;;5042705;28;20029;-73
2022/12/09 04:18:39;;;;;;;45.03;26.90;;;5.40;87.80;;;;;;5035377;28;20028;-74
2022/12/09 04:21:08;;;;;;;42.75;26.73;;;5.40;87.90;;;;;;5043059;28;20029;-74
2022/12/09 04:23:35;;;;;;;46.65;27.77;;;5.40;87.80;;;;;;5027881;28;20032;-73
2022/12/09 04:26:01;;;;;;;41.10;24.25;;;5.40;87.60;;;;;;5049509;28;20074;-73
2022/12/09 04:28:26;;;;;;;43.08;26.15;;;5.30;87.50;;;;;;5041432;28;20033;-73
2022/12/09 04:30:52;;;;;;;46.20;26.65;;;5.30;87.40;;;;;;5015154;28;20099;-74
2022/12/09 04:33:18;;;;;;;41.10;24.95;;;5.30;87.30;;;;;;5041984;28;20102;-74
2022/12/09 04:35:43;;;;;;;44.60;26.52;;;5.30;87.30;;;;;;5021455;28;20027;-73
2022/12/09 04:38:09;;;;;;;42.95;26.38;;;5.20;87.10;;;;;;5034286;28;20068;-73
2022/12/09 04:40:35;;;;;;;42.67;25.35;;;5.20;87.60;;;;;;5030363;28;20188;-73
2022/12/09 04:43:00;;;;;;;43.30;26.63;;;5.20;87.00;;;;;;5047428;28;20104;-73
2022/12/09 04:45:27;;;;;;;45.03;25.98;;;5.10;86.90;;;;;;5038918;28;20063;-74
2022/12/09 04:47:52;;;;;;;46.13;26.88;;;5.10;86.90;;;;;;5024540;28;20036;-72
2022/12/09 04:50:18;;;;;;;43.72;26.70;;;5.00;87.00;;;;;;5045231;28;20110;-73
2022/12/09 04:52:44;;;;;;;43.47;25.58;;;5.00;87.10;;;;;;5058403;28;20025;-73
2022/12/09 04:55:12;;;;;;;48.17;26.75;;;4.90;87.20;;;;;;5044258;28;20052;-74
2022/12/09 04:57:37;;;;;;;45.50;26.50;;;4.90;87.30;;;;;;5040049;28;20364;-72
2022/12/09 05:00:05;;;;;;;42.05;25.63;;;4.90;87.50;;;;;;5038914;28;20033;-73
2022/12/09 05:02:31;;;;;;;44.95;25.98;;;4.90;87.70;;;;;;5045881;28;20091;-73
2022/12/09 05:04:56;;;;;;;46.35;26.05;;;4.80;87.80;;;;;;5041214;28;20033;-73
2022/12/09 05:07:22;;;;;;;43.58;26.27;;;4.80;87.90;;;;;;5042161;28;20025;-73
2022/12/09 05:09:48;;;;;;;44.00;25.90;;;4.80;88.10;;;;;;5043545;28;20026;-73
2022/12/09 05:12:13;;;;;;;45.85;28.05;;;4.80;88.10;;;;;;5041691;28;20478;-73
2022/12/09 05:14:40;;;;;;;47.80;26.80;;;4.80;88.20;;;;;;5014416;28;20565;-73
2022/12/09 05:17:06;;;;;;;44.92;26.17;;;4.90;88.50;;;;;;5049116;28;20037;-73
2022/12/09 05:19:32;;;;;;;45.60;26.65;;;4.90;88.80;;;;;;5047922;28;20036;-74
2022/12/09 05:21:57;;;;;;;51.20;27.38;;;4.90;89.00;;;;;;5032377;28;20028;-73
2022/12/09 05:24:23;;;;;;;42.67;27.02;;;4.90;89.00;;;;;;5049144;28;20028;-73
2022/12/09 05:26:49;;;;;;;47.42;26.55;;;4.90;89.30;;;;;;5045285;28;20497;-73
2022/12/09 05:29:14;;;;;;;51.60;27.00;;;4.90;89.50;;;;;;5048370;28;20029;-72
2022/12/09 05:31:40;;;;;;;43.90;26.20;;;5.00;89.60;;;;;;5026236;28;20021;-73
2022/12/09 05:34:06;;;;;;;46.72;28.25;;;5.00;89.80;;;;;;5039446;28;20148;-74
2022/12/09 05:36:31;;;;;;;44.28;26.60;;;5.00;89.90;;;;;;5035672;28;20075;-74
2022/12/09 05:38:57;;;;;;;46.75;27.25;;;5.00;90.00;;;;;;5038195;28;20063;-73
2022/12/09 05:41:23;;;;;;;45.75;27.48;;;5.00;90.00;;;;;;5042235;28;20075;-73
2022/12/09 05:43:50;;;;;;;45.03;26.25;;;5.00;90.00;;;;;;5038300;28;20025;-74
2022/12/09 05:46:16;;;;;;;47.80;26.50;;;5.00;90.10;;;;;;5037774;28;20108;-73
2022/12/09 05:48:42;;;;;;;49.90;27.30;;;5.00;90.10;;;;;;5043662;28;20100;-73
2022/12/09 05:51:13;;;;;;;48.42;28.58;;;5.00;90.10;;;;;;5044515;28;20147;-74
2022/12/09 05:53:38;;;;;;;47.95;27.08;;;5.00;90.20;;;;;;5037562;28;20037;-73
2022/12/09 05:56:04;;;;;;;44.70;25.90;;;5.00;90.20;;;;;;5044757;28;20020;-72
2022/12/09 05:58:30;;;;;;;43.38;24.88;;;5.00;90.10;;;;;;5048001;28;20017;-73
2022/12/09 06:01:03;;;;;;;41.08;24.45;;;5.10;90.10;;;;;;5048258;28;20039;-73
2022/12/09 06:03:28;;;;;;;43.88;26.83;;;5.10;90.10;;;;;;5040452;28;20035;-72
2022/12/09 06:05:54;;;;;;;43.08;25.77;;;5.10;90.00;;;;;;5045137;28;20021;-73
2022/12/09 06:08:19;;;;;;;39.67;25.30;;;5.10;90.00;;;;;;5038751;28;20035;-73
2022/12/09 06:10:45;;;;;;;42.90;23.45;;;5.10;89.80;;;;;;5030389;28;20079;-73
2022/12/09 06:13:11;;;;;;;38.33;23.42;;;5.10;89.50;;;;;;5036964;28;20049;-73
2022/12/09 06:15:36;;;;;;;43.70;25.25;;;5.10;89.30;;;;;;5048415;28;20155;-73
2022/12/09 06:18:02;;;;;;;39.65;23.10;;;5.10;89.30;;;;;;5047149;28;20552;-73
2022/12/09 06:20:28;;;;;;;38.85;24.17;;;5.00;89.00;;;;;;5047118;28;20099;-74
2022/12/09 06:22:54;;;;;;;40.78;23.73;;;5.00;88.70;;;;;;5047402;28;20101;-73
2022/12/09 06:25:19;;;;;;;40.58;23.27;;;5.00;88.50;;;;;;5047268;28;20029;-73
2022/12/09 06:27:45;;;;;;;38.10;23.40;;;5.00;88.50;;;;;;5034244;28;20025;-73
2022/12/09 06:30:11;;;;;;;38.45;22.67;;;5.00;88.50;;;;;;5009810;28;20033;-74
2022/12/09 06:32:37;;;;;;;40.03;23.42;;;5.00;88.30;;;;;;5040990;28;20045;-73
2022/12/09 06:35:02;;;;;;;37.10;22.83;;;4.90;88.10;;;;;;5037159;28;20033;-73
2022/12/09 06:37:28;;;;;;;38.83;22.40;;;4.90;88.00;;;;;;5043480;28;20112;-73
2022/12/09 06:39:54;;;;;;;38.10;23.40;;;4.90;88.40;;;;;;5046368;28;20096;-74
2022/12/09 06:42:19;;;;;;;39.22;22.65;;;4.80;87.70;;;;;;5044827;28;20025;-73
2022/12/09 06:44:45;;;;;;;37.20;21.70;;;4.80;88.30;;;;;;5037757;28;20021;-75
2022/12/09 06:47:12;;;;;;;41.75;21.63;;;4.70;87.60;;;;;;5045604;28;20402;-74
2022/12/09 06:49:37;;;;;;;37.67;22.40;;;4.60;87.50;;;;;;5035507;28;20394;-73
2022/12/09 06:52:03;;;;;;;34.00;20.10;;;4.60;87.70;;;;;;5043143;28;20025;-72
2022/12/09 06:54:29;;;;;;;38.72;22.63;;;4.60;87.70;;;;;;5042430;28;20116;-74
2022/12/09 06:56:55;;;;;;;38.72;22.48;;;4.50;87.80;;;;;;5044876;28;20021;-73
2022/12/09 06:59:20;;;;;;;38.65;22.73;;;4.50;87.90;;;;;;5042840;28;20100;-72
2022/12/09 07:01:46;;;;;;;39.38;22.02;;;4.40;88.00;;;;;;5042554;28;20029;-73
2022/12/09 07:04:13;;;;;;;41.25;23.52;;;4.40;88.30;;;;;;5036340;28;20025;-73
2022/12/09 07:06:41;;;;;;;46.97;25.20;;;4.40;88.20;;;;;;5026700;28;20049;-72
2022/12/09 07:09:10;;;;;;;40.10;23.52;;;4.40;88.10;;;;;;5027440;28;20100;-73
2022/12/09 07:11:36;;;;;;;41.10;21.63;;;4.30;88.60;;;;;;5039576;28;20547;-73
2022/12/09 07:14:03;;;;;;;43.20;24.52;;;4.30;89.20;;;;;;5038081;28;20070;-73
2022/12/09 07:16:29;;;;;;;47.10;25.40;;;4.20;88.50;;;;;;5035279;28;20029;-72
2022/12/09 07:18:55;;;;;;;44.85;24.02;;;4.20;88.50;;;;;;5037397;28;20021;-72
2022/12/09 07:21:22;;;;;;;45.90;24.73;;;4.20;88.50;;;;;;5036269;28;20099;-73
2022/12/09 07:23:49;;;;;;;41.35;23.65;;;4.20;88.60;;;;;;5036049;28;20029;-74
2022/12/09 07:26:15;;;;;;;42.10;23.63;;;4.10;89.10;;;;;;5025329;28;20025;-73
2022/12/09 07:28:42;;;;;;;44.00;22.83;;;4.10;88.50;;;;;;5041062;28;20020;-73
2022/12/09 07:31:28;;;;;;;49.47;23.17;;;4.10;89.30;;;;;;5040495;28;20107;-73
2022/12/09 07:33:55;;;;;;;41.83;25.30;;;4.00;88.70;;;;;;5025491;28;20053;-73
2022/12/09 07:36:23;;;;;;;46.08;25.38;;;4.00;88.70;;;;;;5047443;28;20072;-73
2022/12/09 07:38:57;;;;;;;42.05;22.90;;;3.90;88.90;;;;;;5047999;28;20017;-72
2022/12/09 07:41:23;;;;;;;50.38;24.92;;;3.90;89.20;;;;;;5027387;28;20083;-73
2022/12/09 07:43:49;;;;;;;47.53;24.88;;;3.90;89.30;;;;;;5050316;28;20060;-72
2022/12/09 07:46:17;;;;;;;43.35;22.73;;;3.90;89.20;;;;;;5047588;28;20067;-73
2022/12/09 07:48:42;;;;;;;45.28;23.13;;;3.90;89.20;;;;;;5050700;28;20025;-74
2022/12/09 07:51:08;;;;;;;35.53;18.45;;;3.90;89.30;;;;;;5048116;28;20044;-74
2022/12/09 07:53:35;;;;;;;45.80;24.63;;;3.90;90.00;;;;;;5045741;28;20049;-73
2022/12/09 07:56:06;;;;;;;53.83;26.00;;;3.90;90.10;;;;;;5038927;28;20033;-74
2022/12/09 07:58:32;;;;;;;49.65;24.75;;;3.90;90.10;;;;;;5039793;28;20132;-74
2022/12/09 08:01:09;;;;;;;49.88;27.05;;;3.90;90.00;;;;;;5041373;28;20052;-73
2022/12/09 08:03:35;;;;;;;47.15;24.23;;;3.90;90.10;;;;;;5042830;28;20029;-74
2022/12/09 08:06:01;;;;;;;50.13;26.88;;;3.90;90.10;;;;;;5039145;28;20047;-74
2022/12/09 08:08:27;;;;;;;52.85;27.90;;;3.90;90.20;;;;;;5041230;28;20055;-73
2022/12/09 08:10:53;;;;;;;46.03;25.35;;;4.00;90.30;;;;;;5045127;28;20021;-73
2022/12/09 08:13:19;;;;;;;44.63;25.33;;;4.00;90.30;;;;;;5044033;28;20089;-74
2022/12/09 08:15:45;;;;;;;52.30;25.33;;;4.00;90.40;;;;;;5012991;28;20064;-73
2022/12/09 08:18:11;;;;;;;50.53;27.60;;;4.10;90.50;;;;;;5047006;28;20052;-74
2022/12/09 08:20:40;;;;;;;43.08;26.10;;;4.10;90.60;;;;;;5031094;28;20617;-74
2022/12/09 08:23:06;;;;;;;51.78;26.85;;;4.10;90.60;;;;;;5045539;28;20025;-73
2022/12/09 08:25:32;;;;;;;52.22;28.52;;;4.20;90.70;;;;;;5043560;28;20021;-73
2022/12/09 08:27:58;;;;;;;59.45;31.95;;;4.30;90.80;;;;;;5047139;28;20574;-72
2022/12/09 08:30:24;;;;;;;57.55;32.15;;;4.30;90.90;;;;;;5019103;28;20053;-74
2022/12/09 08:32:49;;;;;;;59.72;31.80;;;4.40;90.90;;;;;;5039818;28;20021;-73
2022/12/09 08:35:15;;;;;;;57.42;32.28;;;4.40;90.90;;;;;;5045234;28;20037;-73
2022/12/09 08:37:41;;;;;;;61.30;32.20;;;4.40;91.00;;;;;;5042907;28;20025;-73
2022/12/09 08:40:08;;;;;;;60.15;30.65;;;4.50;91.10;;;;;;5049447;28;20045;-73
2022/12/09 08:42:34;;;;;;;59.10;30.70;;;4.50;91.00;;;;;;5032593;28;20109;-73
2022/12/09 08:45:00;;;;;;;61.92;32.60;;;4.60;91.00;;;;;;5033743;28;20032;-73
2022/12/09 08:47:27;;;;;;;70.18;34.45;;;4.60;90.90;;;;;;5038442;28;20646;-73
2022/12/09 08:49:52;;;;;;;60.50;32.38;;;4.50;90.90;;;;;;5033218;28;20025;-74
2022/12/09 08:52:18;;;;;;;63.78;34.33;;;4.60;90.90;;;;;;5044200;28;20144;-75
2022/12/09 08:54:44;;;;;;;71.15;35.05;;;4.60;90.90;;;;;;5045607;28;20487;-74
2022/12/09 08:57:10;;;;;;;58.38;32.45;;;4.60;90.90;;;;;;5042981;28;20021;-74
2022/12/09 08:59:35;;;;;;;67.47;34.75;;;4.60;91.20;;;;;;5023272;28;20476;-73
2022/12/09 09:02:01;;;;;;;59.10;33.00;;;4.70;90.90;;;;;;5044756;28;20033;-74
2022/12/09 09:04:27;;;;;;;62.90;34.22;;;4.70;90.90;;;;;;5026888;28;20029;-73
2022/12/09 09:06:53;;;;;;;61.70;33.08;;;4.70;90.90;;;;;;5043051;28;20031;-73
2022/12/09 09:09:20;;;;;;;55.20;29.58;;;4.70;90.90;;;;;;5039872;28;20025;-74
2022/12/09 09:11:46;;;;;;;59.60;34.20;;;4.80;90.80;;;;;;5030183;28;20031;-73
2022/12/09 09:14:13;;;;;;;55.35;31.65;;;4.80;90.70;;;;;;5046044;28;20037;-74
2022/12/09 09:16:44;;;;;;;64.90;32.67;;;4.90;90.60;;;;;;5046855;28;20187;-75
2022/12/09 09:19:19;;;;;;;56.63;31.83;;;4.90;90.40;;;;;;5045064;28;20079;-74
2022/12/09 09:21:45;;;;;;;56.85;32.75;;;4.90;90.30;;;;;;5043930;28;20033;-74
2022/12/09 09:24:13;;;;;;;63.47;33.40;;;4.90;90.40;;;;;;5038788;28;20032;-75
2022/12/09 09:26:41;;;;;;;53.03;28.58;;;5.00;90.40;;;;;;5034397;28;20487;-74
2022/12/09 09:29:09;;;;;;;46.70;24.90;;;5.00;90.30;;;;;;5040615;28;20029;-74
2022/12/09 09:31:35;;;;;;;44.28;25.50;;;5.00;90.00;;;;;;5046351;28;20024;-74
2022/12/09 09:34:00;;;;;;;58.58;31.33;;;5.10;88.70;;;;;;5042664;28;20020;-74
2022/12/09 09:36:26;;;;;;;59.75;31.73;;;5.10;88.80;;;;;;5043914;28;20025;-74
2022/12/09 09:38:54;;;;;;;55.88;30.67;;;5.10;89.70;;;;;;5023167;28;20124;-73
2022/12/09 09:41:42;;;;;;;47.72;27.85;;;5.10;88.90;;;;;;5040937;28;20525;-74
2022/12/09 09:44:33;;;;;;;46.65;26.80;;;5.10;88.60;;;;;;5033425;28;20021;-74
2022/12/09 09:47:00;;;;;;;47.80;27.70;;;5.00;88.30;;;;;;5040804;28;20373;-74
2022/12/09 09:49:43;;;;;;;49.67;27.80;;;5.10;88.80;;;;;;5038927;28;20032;-75
2022/12/09 09:52:15;;;;;;;45.75;26.50;;;5.10;89.10;;;;;;5043751;28;20029;-75
2022/12/09 09:54:41;;;;;;;37.45;20.65;;;5.10;89.30;;;;;;5032860;28;20116;-74
2022/12/09 09:57:21;;;;;;;36.10;21.02;;;5.20;88.70;;;;;;5050767;28;20163;-75
2022/12/09 10:00:13;;;;;;;32.53;18.92;;;5.20;87.90;;;;;;5046401;28;20510;-74
2022/12/09 10:03:01;;;;;;;36.90;21.73;;;5.20;87.00;;;;;;5009147;28;20151;-73
2022/12/09 10:05:32;;;;;;;31.73;18.70;;;5.20;86.70;;;;;;5037291;28;20029;-74
2022/12/09 10:08:10;;;;;;;34.92;20.10;;;5.20;86.20;;;;;;5044890;28;20091;-73
2022/12/09 10:10:57;;;;;;;31.42;19.25;;;5.20;86.00;;;;;;5045101;28;20028;-74
2022/12/09 10:13:29;;;;;;;33.42;18.05;;;5.20;85.80;;;;;;5014126;28;20049;-74
2022/12/09 10:16:01;;;;;;;30.88;17.27;;;5.20;85.20;;;;;;5022461;28;20075;-73
2022/12/09 10:18:55;;;;;;;27.98;17.63;;;5.20;84.90;;;;;;5019312;28;20052;-73
2022/12/09 10:21:21;;;;;;;29.65;18.02;;;5.20;84.70;;;;;;5014984;28;20531;-75
2022/12/09 10:23:48;;;;;;;26.05;16.52;;;5.20;84.50;;;;;;5021448;28;20032;-74
2022/12/09 10:26:27;;;;;;;30.67;18.92;;;5.20;84.60;;;;;;5021846;28;20085;-74
2022/12/09 10:29:28;;;;;;;33.42;20.05;;;5.10;84.90;;;;;;5014352;28;20024;-74
2022/12/09 10:31:54;;;;;;;28.17;17.52;;;5.20;85.10;;;;;;5017229;28;20037;-74
2022/12/09 10:34:19;;;;;;;33.83;18.88;;;5.20;85.60;;;;;;5024119;28;20106;-74
2022/12/09 10:36:46;;;;;;;32.85;18.80;;;5.20;84.80;;;;;;5032613;28;20098;-75
2022/12/09 10:39:20;;;;;;;31.45;18.60;;;5.20;85.10;;;;;;5017359;28;20071;-74
2022/12/09 10:44:44;;;;;;;30.67;17.85;;;6.00;84.40;;;;;;5025238;28;20120;-73
2022/12/09 10:47:19;;;;;;;36.20;21.08;;;6.40;81.90;;;;;;5018753;28;20484;-74
2022/12/09 10:49:49;;;;;;;29.58;17.33;;;6.50;80.30;;;;;;5020489;28;20121;-74
2022/12/09 10:52:21;;;;;;;34.20;20.33;;;6.40;79.70;;;;;;5017723;28;20022;-73
2022/12/09 10:54:47;;;;;;;32.05;20.00;;;6.30;79.00;;;;;;5015887;28;20813;-74
2022/12/09 10:57:12;;;;;;;35.05;19.95;;;6.30;79.30;;;;;;5016796;28;20026;-74
2022/12/09 10:59:40;;;;;;;30.42;18.70;;;6.20;78.60;;;;;;5010625;28;20029;-73
2022/12/09 11:02:09;;;;;;;32.65;20.13;;;6.20;78.60;;;;;;5012644;28;20395;-73
2022/12/09 11:04:43;;;;;;;34.10;19.55;;;6.10;79.00;;;;;;5026881;28;20036;-74
2022/12/09 11:07:11;;;;;;;35.63;19.65;;;6.10;79.20;;;;;;5022352;28;20056;-73
2022/12/09 11:09:42;;;;;;;43.60;21.40;;;6.10;79.30;;;;;;5026965;28;20144;-73
2022/12/09 11:12:25;;;;;;;39.13;22.52;;;6.10;79.30;;;;;;5023700;28;20499;-73
2022/12/09 11:14:53;;;;;;;35.03;19.08;;;6.00;79.10;;;;;;5041918;28;20031;-73
2022/12/09 11:17:35;;;;;;;35.38;20.90;;;5.90;79.50;;;;;;5021076;28;20017;-75
2022/12/09 11:20:04;;;;;;;27.27;15.70;;;5.90;79.80;;;;;;5027431;28;20029;-73
2022/12/09 11:22:38;;;;;;;33.20;19.83;;;5.90;83.50;;;;;;5042179;28;20024;-74
2022/12/09 11:25:23;;;;;;;32.03;18.60;;;6.00;82.10;;;;;;5042950;28;20029;-74
2022/12/09 11:27:56;;;;;;;30.80;17.48;;;6.00;80.70;;;;;;5021984;28;20064;-73
2022/12/09 11:30:30;;;;;;;34.40;20.50;;;5.90;80.60;;;;;;5038696;28;20029;-74
2022/12/09 11:32:58;;;;;;;28.38;17.55;;;5.80;80.40;;;;;;5039627;28;20017;-74
2022/12/09 11:35:29;;;;;;;33.05;18.80;;;5.80;81.60;;;;;;5043671;28;20091;-74
2022/12/09 11:38:01;;;;;;;32.78;18.92;;;5.80;80.50;;;;;;5041172;28;20025;-75
2022/12/09 11:40:27;;;;;;;30.45;17.02;;;5.80;80.20;;;;;;5019022;28;20021;-74
2022/12/09 11:42:55;;;;;;;30.65;18.27;;;5.80;80.50;;;;;;5038528;28;20021;-73
2022/12/09 11:45:37;;;;;;;28.75;18.00;;;5.70;80.20;;;;;;5043549;28;20474;-73
2022/12/09 11:48:19;;;;;;;26.02;14.95;;;5.50;80.50;;;;;;5042578;28;20025;-74
2022/12/09 11:50:50;;;;;;;23.73;15.02;;;5.60;82.60;;;;;;5045819;28;20561;-73
2022/12/09 11:53:30;;;;;;;28.80;17.95;;;5.50;84.60;;;;;;5043644;28;20056;-75
2022/12/09 11:56:21;;;;;;;28.45;16.13;;;5.40;83.50;;;;;;5032931;28;20079;-74
2022/12/09 11:58:56;;;;;;;26.98;15.55;;;5.50;83.80;;;;;;5038204;28;20029;-73
2022/12/09 12:01:43;;;;;;;32.65;19.23;;;5.50;84.00;;;;;;5044678;28;20029;-74
2022/12/09 12:04:13;;;;;;;36.70;20.48;;;5.50;83.40;;;;;;5038990;28;20108;-75
2022/12/09 12:06:55;;;;;;;32.70;19.60;;;5.50;82.90;;;;;;5029501;28;20057;-73
2022/12/09 12:09:38;;;;;;;38.42;19.33;;;5.50;83.90;;;;;;5040225;28;20135;-73
2022/12/09 12:13:02;;;;;;;38.38;21.30;;;5.50;84.30;;;;;;5037166;28;20057;-73
2022/12/09 12:15:57;;;;;;;34.45;19.45;;;5.40;83.10;;;;;;4946861;28;20041;-73
2022/12/09 12:18:28;;;;;;;31.40;19.08;;;5.40;82.80;;;;;;5038944;28;20039;-73
2022/12/09 12:21:02;;;;;;;37.45;19.63;;;5.50;83.50;;;;;;5035093;28;20021;-74
2022/12/09 12:23:52;;;;;;;31.40;18.88;;;5.50;82.50;;;;;;5034804;28;20032;-73
2022/12/09 12:26:23;;;;;;;27.42;15.88;;;5.70;82.10;;;;;;5031000;28;20040;-74
2022/12/09 12:29:05;;;;;;;26.48;15.98;;;5.70;81.70;;;;;;5030318;28;20049;-74
2022/12/09 12:31:49;;;;;;;31.10;17.27;;;5.70;81.50;;;;;;5044545;28;20029;-73
2022/12/09 12:34:52;;;;;;;23.10;13.30;;;5.80;80.90;;;;;;5042197;28;20040;-75
2022/12/09 12:37:29;;;;;;;25.77;14.73;;;5.70;81.20;;;;;;5043984;28;20155;-74
2022/12/09 12:40:07;;;;;;;29.58;16.85;;;5.60;80.10;;;;;;5030255;28;20053;-74
2022/12/09 12:46:15;;;;;;;28.45;17.80;;;5.70;81.00;;;;;;5019518;28;20542;-74
2022/12/09 12:48:25;;;;;;;25.48;15.60;;;5.70;79.40;;;;;;5042319;28;20067;-75
2022/12/09 12:51:17;;;;;;;34.28;18.25;;;5.70;79.70;;;;;;5038978;28;20100;-74
2022/12/09 12:54:00;;;;;;;29.65;16.35;;;5.70;79.90;;;;;;5038587;28;20118;-74
2022/12/09 12:56:47;;;;;;;29.83;17.15;;;5.70;79.20;;;;;;5037530;28;20082;-74
2022/12/09 12:59:37;;;;;;;23.95;13.70;;;5.70;79.10;;;;;;5036250;28;20572;-73